Time;durP1;ratioP1;P1;durP2;ratioP2;P2;SDS_P1;SDS_P2;PMS_P1;PMS_P2;Temp;Humidity;BMP_temperature;BMP_pressure;BME280_temperature;BME280_humidity;BME280_pressure;Samples;Min_cycle;Max_cycle;Signal;HPM_P1;HPM_P2
2022/08/14 00:00:54;;;;;;;2.05;1.95;;;;;;;;;;5101262;28;20583;-61
2022/08/14 00:03:41;;;;;;;2.10;2.00;;;;;;;;;;5102978;28;20201;-62
2022/08/14 00:06:28;;;;;;;2.10;2.00;;;;;;;;;;5102883;28;20239;-61
2022/08/14 00:09:17;;;;;;;1.90;1.80;;;;;;;;;;5095858;28;20206;-62
2022/08/14 00:12:05;;;;;;;1.83;1.75;;;;;;;;;;5099360;28;20213;-61
2022/08/14 00:14:53;;;;;;;1.80;1.80;;;;;;;;;;5100477;28;20653;-61
2022/08/14 00:17:40;;;;;;;2.05;1.95;;;;;;;;;;5103358;28;20206;-61
2022/08/14 00:20:30;;;;;;;2.00;1.90;;;;;;;;;;5104838;28;20220;-64
2022/08/14 00:23:17;;;;;;;2.10;2.00;;;;;;;;;;5099105;28;20208;-61
2022/08/14 00:26:06;;;;;;;1.67;1.67;;;;;;;;;;5101723;28;20684;-61
2022/08/14 00:28:54;;;;;;;2.03;2.03;;;;;;;;;;5094494;28;20281;-61
2022/08/14 00:31:41;;;;;;;1.88;1.77;;;;;;;;;;5097668;28;20617;-61
2022/08/14 00:34:28;;;;;;;1.85;1.85;;;;;;;;;;5101653;28;20253;-61
2022/08/14 00:37:14;;;;;;;2.10;2.00;;;;;;;;;;5098475;28;20201;-61
2022/08/14 00:40:02;;;;;;;2.10;2.00;;;;;;;;;;5101773;28;20221;-61
2022/08/14 00:42:51;;;;;;;1.88;1.88;;;;;;;;;;5101758;28;20213;-61
2022/08/14 00:45:38;;;;;;;2.15;2.05;;;;;;;;;;5099170;28;20210;-61
2022/08/14 00:48:25;;;;;;;2.00;1.90;;;;;;;;;;5098793;28;20210;-61
2022/08/14 00:51:12;;;;;;;2.30;2.20;;;;;;;;;;5100685;28;20209;-62
2022/08/14 00:53:59;;;;;;;1.70;1.70;;;;;;;;;;5096276;28;20213;-61
2022/08/14 00:56:47;;;;;;;2.17;2.08;;;;;;;;;;5101903;28;20236;-62
2022/08/14 00:59:36;;;;;;;2.10;2.00;;;;;;;;;;5099590;28;20265;-62
2022/08/14 01:02:24;;;;;;;2.20;2.10;;;;;;;;;;5098915;28;20201;-62
2022/08/14 01:05:22;;;;;;;2.22;2.13;;;;;;;;;;5098883;28;20233;-61
2022/08/14 01:08:10;;;;;;;2.30;2.20;;;;;;;;;;5104894;28;20213;-62
2022/08/14 01:10:58;;;;;;;2.17;2.10;;;;;;;;;;5093933;28;20245;-62
2022/08/14 01:13:45;;;;;;;2.17;2.08;;;;;;;;;;5098436;28;20213;-61
2022/08/14 01:16:33;;;;;;;2.10;2.00;;;;;;;;;;5096869;28;20617;-61
2022/08/14 01:22:26;;;;;;;2.22;2.13;;;;;;;;;;5097913;28;20203;-61
2022/08/14 01:25:14;;;;;;;2.33;2.22;;;;;;;;;;5100074;28;20340;-61
2022/08/14 01:28:01;;;;;;;2.15;2.05;;;;;;;;;;5097334;28;20813;-61
2022/08/14 01:30:48;;;;;;;2.30;2.20;;;;;;;;;;5097574;28;20316;-61
2022/08/14 01:33:39;;;;;;;2.00;2.00;;;;;;;;;;5103899;28;20593;-61
2022/08/14 01:36:27;;;;;;;2.20;2.10;;;;;;;;;;5092212;28;20200;-61
2022/08/14 01:39:17;;;;;;;2.17;2.08;;;;;;;;;;5101803;28;20648;-61
2022/08/14 01:42:05;;;;;;;2.20;2.10;;;;;;;;;;5094421;28;20330;-61
2022/08/14 01:44:57;;;;;;;2.27;2.17;;;;;;;;;;5097733;28;20207;-61
2022/08/14 01:47:44;;;;;;;2.13;2.03;;;;;;;;;;5099943;28;20621;-61
2022/08/14 01:50:34;;;;;;;2.28;2.17;;;;;;;;;;5103145;28;20221;-61
2022/08/14 01:53:21;;;;;;;2.22;2.13;;;;;;;;;;5106263;28;20292;-61
2022/08/14 01:56:10;;;;;;;2.05;1.95;;;;;;;;;;5097386;28;20203;-61
2022/08/14 01:58:57;;;;;;;2.20;2.10;;;;;;;;;;5100763;28;20224;-61
2022/08/14 02:01:44;;;;;;;2.00;2.00;;;;;;;;;;5100959;28;20261;-62
2022/08/14 02:04:34;;;;;;;2.30;2.20;;;;;;;;;;5096081;28;20208;-61
2022/08/14 02:07:21;;;;;;;2.20;2.10;;;;;;;;;;5098767;28;20243;-61
2022/08/14 02:10:10;;;;;;;2.07;1.97;;;;;;;;;;5105378;28;20702;-61
2022/08/14 02:12:58;;;;;;;2.17;2.08;;;;;;;;;;5097859;28;20363;-61
2022/08/14 02:15:45;;;;;;;2.20;2.10;;;;;;;;;;5095273;28;20216;-61
2022/08/14 02:18:33;;;;;;;2.03;1.92;;;;;;;;;;5101882;28;20202;-61
2022/08/14 02:21:20;;;;;;;2.13;2.03;;;;;;;;;;5101305;28;20314;-61
2022/08/14 02:24:07;;;;;;;2.10;1.93;;;;;;;;;;5097264;28;20282;-61
2022/08/14 02:26:56;;;;;;;1.97;1.97;;;;;;;;;;5100671;28;20367;-61
2022/08/14 02:29:44;;;;;;;1.90;1.90;;;;;;;;;;5107225;28;20213;-61
2022/08/14 02:32:33;;;;;;;2.13;2.03;;;;;;;;;;5103561;28;20651;-61
2022/08/14 02:35:22;;;;;;;2.30;2.20;;;;;;;;;;5098635;28;20364;-61
2022/08/14 02:38:10;;;;;;;2.30;2.20;;;;;;;;;;5104379;28;20219;-61
2022/08/14 02:40:57;;;;;;;2.30;2.20;;;;;;;;;;5097983;28;20203;-61
2022/08/14 02:43:44;;;;;;;1.90;1.90;;;;;;;;;;5099641;28;20286;-61
2022/08/14 02:46:33;;;;;;;1.83;1.73;;;;;;;;;;5096995;28;20234;-62
2022/08/14 02:49:27;;;;;;;2.40;2.30;;;;;;;;;;5106266;28;20290;-61
2022/08/14 02:52:14;;;;;;;2.00;1.90;;;;;;;;;;5101119;28;20204;-60
2022/08/14 02:55:04;;;;;;;2.05;1.90;;;;;;;;;;5101735;28;20605;-61
2022/08/14 02:57:51;;;;;;;2.00;2.00;;;;;;;;;;5107124;28;20546;-61
2022/08/14 03:00:38;;;;;;;2.10;2.00;;;;;;;;;;5099220;28;20642;-61
2022/08/14 03:03:26;;;;;;;2.10;1.90;;;;;;;;;;5100381;28;20284;-61
2022/08/14 03:06:15;;;;;;;2.20;2.10;;;;;;;;;;5103920;28;20290;-61
2022/08/14 03:09:02;;;;;;;2.30;2.20;;;;;;;;;;5098152;28;20214;-61
2022/08/14 03:11:49;;;;;;;2.10;2.00;;;;;;;;;;5099829;28;20212;-61
2022/08/14 03:14:38;;;;;;;1.90;1.80;;;;;;;;;;5105120;28;20205;-61
2022/08/14 03:17:25;;;;;;;2.00;2.00;;;;;;;;;;5104016;28;20286;-61
2022/08/14 03:20:14;;;;;;;2.10;2.00;;;;;;;;;;5103088;28;20673;-61
2022/08/14 03:23:01;;;;;;;2.05;2.05;;;;;;;;;;5102142;28;20662;-61
2022/08/14 03:25:48;;;;;;;2.20;2.10;;;;;;;;;;5103949;28;20210;-61
2022/08/14 03:28:35;;;;;;;1.80;1.80;;;;;;;;;;5101276;28;20236;-61
2022/08/14 03:31:22;;;;;;;2.07;2.00;;;;;;;;;;5097529;28;20201;-61
2022/08/14 03:34:10;;;;;;;2.20;2.10;;;;;;;;;;5102189;28;20206;-61
2022/08/14 03:36:58;;;;;;;1.80;1.80;;;;;;;;;;5106178;28;20212;-61
2022/08/14 03:39:45;;;;;;;2.10;2.00;;;;;;;;;;5098985;28;20213;-61
2022/08/14 03:42:34;;;;;;;2.03;1.93;;;;;;;;;;5099520;28;20226;-61
2022/08/14 03:45:23;;;;;;;2.00;1.90;;;;;;;;;;5105211;28;20216;-61
2022/08/14 03:48:14;;;;;;;2.13;2.03;;;;;;;;;;5098406;28;20349;-61
2022/08/14 03:51:01;;;;;;;2.03;2.00;;;;;;;;;;5106317;28;20801;-61
2022/08/14 03:53:50;;;;;;;1.97;1.97;;;;;;;;;;5101621;28;20684;-61
2022/08/14 03:56:37;;;;;;;2.10;2.00;;;;;;;;;;5101023;28;20655;-61
2022/08/14 03:59:24;;;;;;;2.10;2.00;;;;;;;;;;5103163;28;20218;-61
2022/08/14 04:02:11;;;;;;;1.77;1.77;;;;;;;;;;5099630;28;20583;-61
2022/08/14 04:04:57;;;;;;;1.83;1.83;;;;;;;;;;5101363;28;20210;-61
2022/08/14 04:07:45;;;;;;;2.20;2.10;;;;;;;;;;5097857;28;20298;-61
2022/08/14 04:10:34;;;;;;;2.20;2.10;;;;;;;;;;5101892;28;20256;-61
2022/08/14 04:13:21;;;;;;;2.00;1.80;;;;;;;;;;5106104;28;20199;-61
2022/08/14 04:16:10;;;;;;;2.10;2.00;;;;;;;;;;5099484;28;20215;-61
2022/08/14 04:18:59;;;;;;;2.20;2.10;;;;;;;;;;5094517;28;20637;-61
2022/08/14 04:21:46;;;;;;;2.10;2.00;;;;;;;;;;5102893;28;20218;-61
2022/08/14 04:24:33;;;;;;;2.00;1.90;;;;;;;;;;5109145;28;20206;-61
2022/08/14 04:27:22;;;;;;;1.77;1.70;;;;;;;;;;5100719;28;20335;-61
2022/08/14 04:30:10;;;;;;;2.10;2.00;;;;;;;;;;5101070;28;20230;-61
2022/08/14 04:32:58;;;;;;;1.60;1.60;;;;;;;;;;5099664;28;20224;-61
2022/08/14 04:35:45;;;;;;;2.10;1.97;;;;;;;;;;5098241;28;20661;-61
2022/08/14 04:44:42;;;;;;;1.83;1.83;;;;;;;;;;5100770;28;20218;-61
2022/08/14 04:50:34;;;;;;;1.90;1.90;;;;;;;;;;5095875;28;20237;-61
2022/08/14 04:53:23;;;;;;;2.40;2.30;;;;;;;;;;5096948;28;20593;-61
2022/08/14 04:56:12;;;;;;;1.70;1.70;;;;;;;;;;5097973;28;20217;-61
2022/08/14 04:59:04;;;;;;;2.00;1.90;;;;;;;;;;5097282;28;20241;-61
2022/08/14 05:01:52;;;;;;;1.87;1.87;;;;;;;;;;5094703;28;20224;-61
2022/08/14 05:04:39;;;;;;;2.00;1.90;;;;;;;;;;5101646;28;20594;-61
2022/08/14 05:07:26;;;;;;;1.92;1.90;;;;;;;;;;5094580;28;20678;-61
2022/08/14 05:10:13;;;;;;;1.80;1.80;;;;;;;;;;5096732;28;20234;-61
2022/08/14 05:13:00;;;;;;;1.75;1.75;;;;;;;;;;5105852;28;20285;-61
2022/08/14 05:15:51;;;;;;;2.10;2.00;;;;;;;;;;5099835;28;20203;-61
2022/08/14 05:18:39;;;;;;;1.90;1.90;;;;;;;;;;5093337;28;20576;-61
2022/08/14 05:21:27;;;;;;;2.10;1.90;;;;;;;;;;5102307;28;20662;-61
2022/08/14 05:24:14;;;;;;;1.70;1.70;;;;;;;;;;5094461;28;20632;-61
2022/08/14 05:27:02;;;;;;;1.93;1.90;;;;;;;;;;5099038;28;20206;-61
2022/08/14 05:29:49;;;;;;;1.88;1.88;;;;;;;;;;5103383;28;20555;-61
2022/08/14 05:32:37;;;;;;;2.22;2.13;;;;;;;;;;5102249;28;20212;-61
2022/08/14 05:35:25;;;;;;;1.77;1.77;;;;;;;;;;5092432;28;20226;-62
2022/08/14 05:38:15;;;;;;;1.93;1.93;;;;;;;;;;5099845;28;20423;-61
2022/08/14 05:41:03;;;;;;;2.05;1.95;;;;;;;;;;5092921;28;20254;-61
2022/08/14 05:43:50;;;;;;;2.30;2.20;;;;;;;;;;5096356;28;20206;-61
2022/08/14 05:46:37;;;;;;;1.90;1.80;;;;;;;;;;5097607;28;20207;-61
2022/08/14 05:49:25;;;;;;;2.08;2.00;;;;;;;;;;5103167;28;20209;-62
2022/08/14 05:52:13;;;;;;;1.80;1.80;;;;;;;;;;5095667;28;20214;-62
2022/08/14 05:55:00;;;;;;;1.95;1.85;;;;;;;;;;5095631;28;20683;-61
2022/08/14 05:57:49;;;;;;;1.70;1.70;;;;;;;;;;5101202;28;20231;-61
2022/08/14 06:00:38;;;;;;;2.25;2.15;;;;;;;;;;5106439;28;20232;-61
2022/08/14 06:03:25;;;;;;;2.15;2.08;;;;;;;;;;5101903;28;20194;-61
2022/08/14 06:06:12;;;;;;;2.30;2.20;;;;;;;;;;5101619;28;20237;-61
2022/08/14 06:09:00;;;;;;;2.13;2.03;;;;;;;;;;5102598;28;20232;-62
2022/08/14 06:11:47;;;;;;;2.00;1.90;;;;;;;;;;5103587;28;20612;-62
2022/08/14 06:14:34;;;;;;;1.90;1.90;;;;;;;;;;5102073;28;20212;-61
2022/08/14 06:17:21;;;;;;;2.00;1.90;;;;;;;;;;5102619;28;20202;-62
2022/08/14 06:20:09;;;;;;;2.00;1.92;;;;;;;;;;5105379;28;20674;-62
2022/08/14 06:22:56;;;;;;;2.00;1.90;;;;;;;;;;5100434;28;20335;-61
2022/08/14 06:25:44;;;;;;;2.05;1.95;;;;;;;;;;5106464;28;20210;-62
2022/08/14 06:28:31;;;;;;;2.20;2.10;;;;;;;;;;5105524;28;20258;-62
2022/08/14 06:31:18;;;;;;;1.90;1.90;;;;;;;;;;5109434;28;20270;-62
2022/08/14 06:34:05;;;;;;;2.00;1.90;;;;;;;;;;5107335;28;20209;-62
2022/08/14 06:36:55;;;;;;;1.83;1.83;;;;;;;;;;5100220;28;20605;-63
2022/08/14 06:39:42;;;;;;;1.90;1.90;;;;;;;;;;5107437;28;20213;-62
2022/08/14 06:42:30;;;;;;;1.90;1.80;;;;;;;;;;5097515;28;20210;-62
2022/08/14 06:45:17;;;;;;;1.90;1.90;;;;;;;;;;5102842;28;20213;-62
2022/08/14 06:48:13;;;;;;;1.98;1.95;;;;;;;;;;5101392;28;20230;-63
2022/08/14 06:50:59;;;;;;;2.20;2.10;;;;;;;;;;5102723;28;20248;-62
2022/08/14 06:53:46;;;;;;;2.08;2.00;;;;;;;;;;5100795;28;20624;-62
2022/08/14 06:56:33;;;;;;;1.73;1.73;;;;;;;;;;5103740;28;20206;-62
2022/08/14 06:59:22;;;;;;;2.03;1.92;;;;;;;;;;5101509;28;20194;-62
2022/08/14 07:08:16;;;;;;;1.73;1.73;;;;;;;;;;5090159;28;20286;-60
2022/08/14 07:11:03;;;;;;;1.80;1.80;;;;;;;;;;5096623;28;20728;-61
2022/08/14 07:13:50;;;;;;;1.73;1.63;;;;;;;;;;5095705;28;20212;-61
2022/08/14 07:16:38;;;;;;;1.80;1.70;;;;;;;;;;5107221;28;20383;-61
2022/08/14 07:19:25;;;;;;;1.63;1.60;;;;;;;;;;5103815;28;20638;-61
2022/08/14 07:22:12;;;;;;;1.70;1.70;;;;;;;;;;5098331;28;20218;-61
2022/08/14 07:24:59;;;;;;;1.63;1.63;;;;;;;;;;5100188;28;20207;-60
2022/08/14 07:27:46;;;;;;;1.70;1.70;;;;;;;;;;5096755;28;20229;-60
2022/08/14 07:30:34;;;;;;;1.58;1.58;;;;;;;;;;5100347;28;20202;-62
2022/08/14 07:33:22;;;;;;;1.65;1.65;;;;;;;;;;5100899;28;20206;-61
2022/08/14 07:36:12;;;;;;;1.52;1.52;;;;;;;;;;5099203;28;20214;-61
2022/08/14 07:38:59;;;;;;;1.55;1.55;;;;;;;;;;5098473;28;20228;-61
2022/08/14 07:41:46;;;;;;;1.40;1.40;;;;;;;;;;5099442;28;20247;-61
2022/08/14 07:44:33;;;;;;;1.50;1.50;;;;;;;;;;5105497;28;20273;-61
2022/08/14 07:47:20;;;;;;;1.58;1.50;;;;;;;;;;5103138;28;20554;-63
2022/08/14 07:50:13;;;;;;;1.77;1.77;;;;;;;;;;5104351;28;20207;-63
2022/08/14 07:53:00;;;;;;;1.33;1.33;;;;;;;;;;5100934;28;20714;-63
2022/08/14 07:55:48;;;;;;;1.40;1.40;;;;;;;;;;5096447;28;20295;-63
2022/08/14 07:58:37;;;;;;;1.30;1.30;;;;;;;;;;5101257;28;20347;-63
2022/08/14 08:01:25;;;;;;;1.30;1.30;;;;;;;;;;5099486;28;20203;-63
2022/08/14 08:04:12;;;;;;;1.58;1.58;;;;;;;;;;5102832;28;20641;-63
2022/08/14 08:07:02;;;;;;;1.70;1.70;;;;;;;;;;5097171;28;20223;-63
2022/08/14 08:09:53;;;;;;;1.42;1.42;;;;;;;;;;5100505;28;20241;-63
2022/08/14 08:12:41;;;;;;;1.40;1.40;;;;;;;;;;5102713;28;20294;-63
2022/08/14 08:15:31;;;;;;;2.00;1.77;;;;;;;;;;5100597;28;20202;-62
2022/08/14 08:18:18;;;;;;;1.52;1.48;;;;;;;;;;5097489;28;20205;-63
2022/08/14 08:21:07;;;;;;;1.63;1.63;;;;;;;;;;5103011;28;20198;-63
2022/08/14 08:23:55;;;;;;;1.80;1.70;;;;;;;;;;5095516;28;20255;-63
2022/08/14 08:26:42;;;;;;;1.45;1.45;;;;;;;;;;5100541;28;20220;-61
2022/08/14 08:29:29;;;;;;;1.75;1.65;;;;;;;;;;5095598;28;20218;-61
2022/08/14 08:32:16;;;;;;;1.65;1.65;;;;;;;;;;5100871;28;20275;-61
2022/08/14 08:35:03;;;;;;;1.30;1.30;;;;;;;;;;5101447;28;20214;-60
2022/08/14 08:37:52;;;;;;;1.33;1.30;;;;;;;;;;5100797;28;20205;-61
2022/08/14 08:40:42;;;;;;;1.50;1.40;;;;;;;;;;5096347;28;20233;-61
2022/08/14 08:43:31;;;;;;;1.30;1.30;;;;;;;;;;5099105;28;20572;-60
2022/08/14 08:46:20;;;;;;;1.35;1.35;;;;;;;;;;5097126;28;20202;-60
2022/08/14 08:49:07;;;;;;;1.25;1.25;;;;;;;;;;5099400;28;20207;-60
2022/08/14 08:52:03;;;;;;;1.65;1.58;;;;;;;;;;5099834;28;20685;-60
2022/08/14 08:54:53;;;;;;;1.38;1.35;;;;;;;;;;5098313;28;20540;-60
2022/08/14 08:57:41;;;;;;;1.50;1.50;;;;;;;;;;5096682;28;20285;-60
2022/08/14 09:00:32;;;;;;;2.45;1.52;;;;;;;;;;5097790;28;20202;-60
2022/08/14 09:03:23;;;;;;;1.40;1.40;;;;;;;;;;5098183;28;20202;-60
2022/08/14 09:06:10;;;;;;;1.38;1.38;;;;;;;;;;5102346;28;20226;-60
2022/08/14 09:08:57;;;;;;;1.30;1.30;;;;;;;;;;5098319;28;20225;-60
2022/08/14 09:11:44;;;;;;;1.40;1.40;;;;;;;;;;5094689;28;20689;-60
2022/08/14 09:14:35;;;;;;;1.20;1.20;;;;;;;;;;5097908;28;20205;-60
2022/08/14 09:17:22;;;;;;;1.60;1.60;;;;;;;;;;5102229;28;20282;-60
2022/08/14 09:20:11;;;;;;;1.45;1.35;;;;;;;;;;5100391;28;20197;-60
2022/08/14 09:22:59;;;;;;;1.38;1.38;;;;;;;;;;5097839;28;20570;-61
2022/08/14 09:25:48;;;;;;;1.70;1.70;;;;;;;;;;5100358;28;20646;-60
2022/08/14 09:28:35;;;;;;;1.48;1.48;;;;;;;;;;5101937;28;20280;-60
2022/08/14 09:31:24;;;;;;;1.35;1.27;;;;;;;;;;5100601;28;20202;-61
2022/08/14 09:34:21;;;;;;;1.50;1.50;;;;;;;;;;5100751;28;20209;-61
2022/08/14 09:37:27;;;;;;;1.35;1.35;;;;;;;;;;5096977;28;20216;-60
2022/08/14 09:40:22;;;;;;;1.30;1.30;;;;;;;;;;5096547;28;20250;-62
2022/08/14 09:43:20;;;;;;;1.30;1.30;;;;;;;;;;5096947;28;20562;-61
2022/08/14 09:46:07;;;;;;;1.40;1.40;;;;;;;;;;5097507;28;20201;-61
2022/08/14 09:49:00;;;;;;;1.15;1.15;;;;;;;;;;5093821;28;20666;-61
2022/08/14 09:51:48;;;;;;;1.27;1.27;;;;;;;;;;5099373;28;21074;-61
2022/08/14 09:54:41;;;;;;;1.10;1.10;;;;;;;;;;5100211;28;20261;-61
2022/08/14 09:57:30;;;;;;;1.50;1.50;;;;;;;;;;5098169;28;20202;-61
2022/08/14 10:00:19;;;;;;;1.30;1.30;;;;;;;;;;5095970;28;20286;-61
2022/08/14 10:03:06;;;;;;;1.35;1.35;;;;;;;;;;5100747;28;20197;-61
2022/08/14 10:06:06;;;;;;;1.35;1.35;;;;;;;;;;5094687;28;20222;-62
2022/08/14 10:08:58;;;;;;;1.08;1.08;;;;;;;;;;5095897;28;20282;-61
2022/08/14 10:11:54;;;;;;;1.30;1.30;;;;;;;;;;5094741;28;20218;-61
2022/08/14 10:14:43;;;;;;;1.33;1.33;;;;;;;;;;5097351;28;20213;-61
2022/08/14 10:17:30;;;;;;;1.13;1.13;;;;;;;;;;5095206;28;20204;-61
2022/08/14 10:20:20;;;;;;;1.00;1.00;;;;;;;;;;5096220;28;20226;-61
2022/08/14 10:23:18;;;;;;;1.45;1.45;;;;;;;;;;5094340;28;20278;-61
2022/08/14 10:26:07;;;;;;;1.10;1.10;;;;;;;;;;5098149;28;20214;-61
2022/08/14 10:28:55;;;;;;;1.10;1.10;;;;;;;;;;5095840;28;20785;-61
2022/08/14 10:31:43;;;;;;;1.30;1.30;;;;;;;;;;5094280;28;20234;-62
2022/08/14 10:34:35;;;;;;;1.20;1.20;;;;;;;;;;5098015;28;20209;-61
2022/08/14 10:37:22;;;;;;;1.05;1.05;;;;;;;;;;5097299;28;20210;-61
2022/08/14 10:40:11;;;;;;;1.30;1.30;;;;;;;;;;5102726;28;20677;-61
2022/08/14 10:42:58;;;;;;;1.20;1.20;;;;;;;;;;5100263;28;20209;-61
2022/08/14 10:45:54;;;;;;;1.20;1.20;;;;;;;;;;5102099;28;20197;-61
2022/08/14 10:48:41;;;;;;;1.20;1.20;;;;;;;;;;5103132;28;20251;-61
2022/08/14 10:51:31;;;;;;;1.05;1.05;;;;;;;;;;5102345;28;20198;-61
2022/08/14 10:54:30;;;;;;;1.27;1.27;;;;;;;;;;5101053;28;20202;-61
2022/08/14 10:57:21;;;;;;;0.90;0.90;;;;;;;;;;5101929;28;20280;-61
2022/08/14 11:00:13;;;;;;;1.38;1.38;;;;;;;;;;5104085;28;20206;-61
2022/08/14 11:03:02;;;;;;;1.13;1.10;;;;;;;;;;5104538;28;20236;-61
2022/08/14 11:05:51;;;;;;;0.90;0.90;;;;;;;;;;5096627;28;20227;-61
2022/08/14 11:08:38;;;;;;;1.00;1.00;;;;;;;;;;5101872;28;20202;-61
2022/08/14 11:11:26;;;;;;;1.20;1.20;;;;;;;;;;5099985;28;20214;-61
2022/08/14 11:14:16;;;;;;;1.10;1.10;;;;;;;;;;5102960;28;20202;-61
2022/08/14 11:17:04;;;;;;;1.17;1.17;;;;;;;;;;5097996;28;20210;-61
2022/08/14 11:19:55;;;;;;;1.13;1.13;;;;;;;;;;5104172;28;20198;-61
2022/08/14 11:22:42;;;;;;;1.13;1.13;;;;;;;;;;5106085;27;20206;-61
2022/08/14 11:25:31;;;;;;;1.00;1.00;;;;;;;;;;5108535;28;20209;-61
2022/08/14 11:28:24;;;;;;;1.00;1.00;;;;;;;;;;5097206;28;20292;-61
2022/08/14 11:31:13;;;;;;;1.02;1.02;;;;;;;;;;5105455;28;20202;-62
2022/08/14 11:34:00;;;;;;;1.00;1.00;;;;;;;;;;5101892;28;20402;-61
2022/08/14 11:36:47;;;;;;;0.88;0.88;;;;;;;;;;5102348;27;20322;-61
2022/08/14 11:39:33;;;;;;;1.10;1.10;;;;;;;;;;5100779;28;20209;-60
2022/08/14 11:42:23;;;;;;;0.98;0.98;;;;;;;;;;5104878;28;20205;-61
2022/08/14 11:45:10;;;;;;;1.13;1.13;;;;;;;;;;5100173;27;20292;-61
2022/08/14 11:47:59;;;;;;;1.20;1.20;;;;;;;;;;5099245;28;20291;-61
2022/08/14 11:50:47;;;;;;;1.00;1.00;;;;;;;;;;5100348;28;20228;-61
2022/08/14 11:53:34;;;;;;;1.20;1.20;;;;;;;;;;5096249;28;20281;-61
2022/08/14 11:56:22;;;;;;;0.93;0.93;;;;;;;;;;5098204;28;20287;-61
2022/08/14 11:59:17;;;;;;;1.10;1.10;;;;;;;;;;5098557;28;20215;-61
2022/08/14 12:02:12;;;;;;;1.20;1.20;;;;;;;;;;5098700;28;20251;-61
2022/08/14 12:05:01;;;;;;;1.00;1.00;;;;;;;;;;5096520;28;20203;-61
2022/08/14 12:07:48;;;;;;;1.17;1.17;;;;;;;;;;5103438;28;20638;-61
2022/08/14 12:10:36;;;;;;;1.67;1.20;;;;;;;;;;5096381;28;20749;-61
2022/08/14 12:13:23;;;;;;;0.93;0.93;;;;;;;;;;5097427;28;20217;-61
2022/08/14 12:16:12;;;;;;;1.17;1.17;;;;;;;;;;5095954;28;20233;-61
2022/08/14 12:19:00;;;;;;;0.93;0.93;;;;;;;;;;5102244;27;20206;-61
2022/08/14 12:21:51;;;;;;;1.00;1.00;;;;;;;;;;5099778;28;20205;-61
2022/08/14 12:24:38;;;;;;;1.00;1.00;;;;;;;;;;5102426;28;20418;-61
2022/08/14 12:27:38;;;;;;;0.95;0.95;;;;;;;;;;5102758;27;20213;-61
2022/08/14 12:30:27;;;;;;;1.02;1.02;;;;;;;;;;5099224;28;20225;-62
2022/08/14 12:33:24;;;;;;;1.00;1.00;;;;;;;;;;5097029;28;20210;-62
2022/08/14 12:36:20;;;;;;;0.82;0.82;;;;;;;;;;5097993;28;20195;-62
2022/08/14 12:39:21;;;;;;;1.20;1.20;;;;;;;;;;5099442;28;20209;-62
2022/08/14 12:42:09;;;;;;;1.10;1.10;;;;;;;;;;5094870;28;20194;-63
2022/08/14 12:44:59;;;;;;;1.05;1.05;;;;;;;;;;5099814;28;20206;-62
2022/08/14 12:47:46;;;;;;;0.90;0.90;;;;;;;;;;5099616;28;20609;-62
2022/08/14 12:50:38;;;;;;;1.00;1.00;;;;;;;;;;5097948;28;20222;-62
2022/08/14 12:53:34;;;;;;;1.10;1.10;;;;;;;;;;5099478;28;20202;-62
2022/08/14 12:56:25;;;;;;;1.13;1.13;;;;;;;;;;5097519;28;20198;-62
2022/08/14 12:59:13;;;;;;;0.90;0.90;;;;;;;;;;5096661;28;20324;-62
2022/08/14 13:02:00;;;;;;;1.20;1.20;;;;;;;;;;5098973;28;20262;-62
2022/08/14 13:04:49;;;;;;;1.20;1.20;;;;;;;;;;5097834;28;20202;-62
2022/08/14 13:07:38;;;;;;;0.75;0.75;;;;;;;;;;5095724;28;20694;-62
2022/08/14 13:10:26;;;;;;;1.10;1.10;;;;;;;;;;5096925;28;20232;-62
2022/08/14 13:13:16;;;;;;;0.80;0.80;;;;;;;;;;5096657;28;20212;-62
2022/08/14 13:16:05;;;;;;;1.02;1.00;;;;;;;;;;5092606;28;20206;-62
2022/08/14 13:18:52;;;;;;;1.13;1.13;;;;;;;;;;5096985;28;20557;-62
2022/08/14 13:21:40;;;;;;;1.20;1.20;;;;;;;;;;5098122;28;20206;-62
2022/08/14 13:24:27;;;;;;;1.05;1.05;;;;;;;;;;5099316;28;20219;-62
2022/08/14 13:27:14;;;;;;;1.10;1.10;;;;;;;;;;5095182;28;20205;-62
2022/08/14 13:30:06;;;;;;;0.90;0.90;;;;;;;;;;5099223;28;20237;-62
2022/08/14 13:32:54;;;;;;;1.13;1.13;;;;;;;;;;5099432;28;20225;-61
2022/08/14 13:35:46;;;;;;;1.02;1.02;;;;;;;;;;5098701;28;20290;-62
2022/08/14 13:38:33;;;;;;;1.00;1.00;;;;;;;;;;5104881;28;20299;-61
2022/08/14 13:41:22;;;;;;;1.10;1.10;;;;;;;;;;5096796;28;20662;-62
2022/08/14 13:44:10;;;;;;;1.10;1.10;;;;;;;;;;5098437;28;20217;-62
2022/08/14 13:46:58;;;;;;;1.33;1.33;;;;;;;;;;5098394;28;20292;-62
2022/08/14 13:49:46;;;;;;;1.10;1.10;;;;;;;;;;5099899;28;20690;-62
2022/08/14 13:52:40;;;;;;;1.30;1.30;;;;;;;;;;5095035;28;20206;-61
2022/08/14 13:55:29;;;;;;;1.10;1.10;;;;;;;;;;5094897;28;20274;-62
2022/08/14 13:58:18;;;;;;;1.00;1.00;;;;;;;;;;5103473;28;20271;-61
2022/08/14 14:01:06;;;;;;;1.17;1.17;;;;;;;;;;5094065;28;20338;-62
2022/08/14 14:03:56;;;;;;;1.02;1.02;;;;;;;;;;5096647;28;20291;-62
2022/08/14 14:06:46;;;;;;;1.25;1.25;;;;;;;;;;5098476;28;20233;-62
2022/08/14 14:09:33;;;;;;;0.93;0.93;;;;;;;;;;5098192;28;20233;-62
2022/08/14 14:12:20;;;;;;;1.13;1.13;;;;;;;;;;5098528;28;20623;-61
2022/08/14 14:15:09;;;;;;;1.08;1.08;;;;;;;;;;5095922;28;20332;-62
2022/08/14 14:17:57;;;;;;;1.05;1.05;;;;;;;;;;5100895;28;20220;-62
2022/08/14 14:20:45;;;;;;;1.10;1.10;;;;;;;;;;5096635;28;20202;-62
2022/08/14 14:23:34;;;;;;;1.25;1.25;;;;;;;;;;5105268;28;20205;-62
2022/08/14 14:26:22;;;;;;;1.13;1.13;;;;;;;;;;5097241;28;20227;-62
2022/08/14 14:29:12;;;;;;;1.05;1.05;;;;;;;;;;5101375;28;20286;-62
2022/08/14 14:32:01;;;;;;;1.05;1.05;;;;;;;;;;5098124;28;20210;-61
2022/08/14 14:34:53;;;;;;;1.30;1.30;;;;;;;;;;5103676;28;20673;-61
2022/08/14 14:37:43;;;;;;;1.13;1.13;;;;;;;;;;5104104;28;20206;-61
2022/08/14 14:40:33;;;;;;;1.00;1.00;;;;;;;;;;5098884;28;20281;-61
2022/08/14 14:43:21;;;;;;;1.02;1.02;;;;;;;;;;5104580;28;20198;-62
2022/08/14 14:46:09;;;;;;;1.20;1.20;;;;;;;;;;5102898;28;20194;-62
2022/08/14 14:48:56;;;;;;;1.27;1.27;;;;;;;;;;5103298;28;20303;-62
2022/08/14 14:51:45;;;;;;;1.30;1.30;;;;;;;;;;5101139;28;20348;-61
2022/08/14 14:54:34;;;;;;;1.08;1.08;;;;;;;;;;5098619;28;20412;-62
2022/08/14 14:57:21;;;;;;;1.30;1.30;;;;;;;;;;5096826;28;20198;-62
2022/08/14 15:00:12;;;;;;;1.35;1.35;;;;;;;;;;5101686;28;20198;-63
2022/08/14 15:02:59;;;;;;;1.35;1.35;;;;;;;;;;5100279;28;20256;-62
2022/08/14 15:05:46;;;;;;;1.40;1.40;;;;;;;;;;5100335;28;20226;-62
2022/08/14 15:08:33;;;;;;;1.30;1.30;;;;;;;;;;5103769;28;20221;-63
2022/08/14 15:11:29;;;;;;;1.30;1.30;;;;;;;;;;5100961;28;20241;-62
2022/08/14 15:14:16;;;;;;;1.60;1.50;;;;;;;;;;5099616;28;20213;-62
2022/08/14 15:17:05;;;;;;;1.40;1.40;;;;;;;;;;5105133;28;20203;-62
2022/08/14 15:19:53;;;;;;;1.65;1.55;;;;;;;;;;5098745;28;20582;-62
2022/08/14 15:22:40;;;;;;;1.58;1.50;;;;;;;;;;5099952;28;20567;-63
2022/08/14 15:25:30;;;;;;;1.50;1.50;;;;;;;;;;5104437;28;20212;-62
2022/08/14 15:28:19;;;;;;;1.60;1.50;;;;;;;;;;5107376;28;20238;-62
2022/08/14 15:31:06;;;;;;;1.38;1.38;;;;;;;;;;5101097;28;20222;-62
2022/08/14 15:34:13;;;;;;;1.50;1.50;;;;;;;;;;5102945;28;20206;-62
2022/08/14 15:37:02;;;;;;;1.83;1.73;;;;;;;;;;5102152;28;20611;-62
2022/08/14 15:39:49;;;;;;;1.88;1.77;;;;;;;;;;5100665;28;20202;-62
2022/08/14 15:42:37;;;;;;;1.70;1.60;;;;;;;;;;5102381;28;20233;-62
2022/08/14 15:45:25;;;;;;;1.95;1.85;;;;;;;;;;5099877;28;20339;-62
2022/08/14 15:48:12;;;;;;;2.08;1.98;;;;;;;;;;5104405;28;20202;-62
2022/08/14 15:50:59;;;;;;;2.08;1.98;;;;;;;;;;5101905;28;20268;-62
2022/08/14 15:53:46;;;;;;;2.10;2.00;;;;;;;;;;5098898;28;20213;-62
2022/08/14 15:56:33;;;;;;;2.50;2.40;;;;;;;;;;5102607;28;20242;-62
2022/08/14 15:59:20;;;;;;;2.20;2.10;;;;;;;;;;5099485;28;20207;-62
2022/08/14 16:02:08;;;;;;;2.20;2.10;;;;;;;;;;5098655;28;20202;-62
2022/08/14 16:04:55;;;;;;;2.00;1.90;;;;;;;;;;5095414;28;20218;-62
2022/08/14 16:07:42;;;;;;;2.13;2.03;;;;;;;;;;5096872;28;20674;-62
2022/08/14 16:10:29;;;;;;;2.00;1.90;;;;;;;;;;5098800;28;20253;-62
2022/08/14 16:13:17;;;;;;;2.03;1.92;;;;;;;;;;5100892;28;20311;-62
2022/08/14 16:16:06;;;;;;;1.90;1.90;;;;;;;;;;5098762;28;20202;-62
2022/08/14 16:18:57;;;;;;;2.17;2.08;;;;;;;;;;5099907;28;20207;-62
2022/08/14 16:21:44;;;;;;;2.10;1.90;;;;;;;;;;5098896;28;20201;-62
2022/08/14 16:24:34;;;;;;;2.00;1.90;;;;;;;;;;5104036;28;20222;-62
2022/08/14 16:27:22;;;;;;;2.33;2.22;;;;;;;;;;5102751;28;20662;-62
2022/08/14 16:30:13;;;;;;;1.90;1.80;;;;;;;;;;5099014;28;20202;-62
2022/08/14 16:33:01;;;;;;;2.00;1.90;;;;;;;;;;5102078;28;20206;-62
2022/08/14 16:35:51;;;;;;;2.38;2.28;;;;;;;;;;5103049;28;20218;-62
2022/08/14 16:38:42;;;;;;;2.15;2.05;;;;;;;;;;5105318;28;20202;-62
2022/08/14 16:41:29;;;;;;;2.17;2.08;;;;;;;;;;5104036;28;20284;-62
2022/08/14 16:44:18;;;;;;;2.20;2.10;;;;;;;;;;5109774;28;20324;-62
2022/08/14 16:47:08;;;;;;;2.17;2.08;;;;;;;;;;5105210;28;20198;-62
2022/08/14 16:49:56;;;;;;;2.15;2.05;;;;;;;;;;5106084;28;20210;-64
2022/08/14 16:52:45;;;;;;;2.40;2.30;;;;;;;;;;5104431;28;20646;-62
2022/08/14 16:55:33;;;;;;;2.05;1.95;;;;;;;;;;5106767;28;20225;-62
2022/08/14 16:58:21;;;;;;;2.25;2.15;;;;;;;;;;5103265;28;20681;-62
2022/08/14 17:01:14;;;;;;;2.42;2.33;;;;;;;;;;5102700;28;20647;-62
2022/08/14 17:04:05;;;;;;;2.25;2.15;;;;;;;;;;5100829;28;20202;-62
2022/08/14 17:06:53;;;;;;;2.17;2.08;;;;;;;;;;5101946;28;20721;-62
2022/08/14 17:09:44;;;;;;;2.25;2.13;;;;;;;;;;5095758;28;20847;-62